sensor_id;sensor_type;location;lat;lon;timestamp;P1;durP1;ratioP1;P2;durP2;ratioP2
38427;SDS011;24211;49.980;19.776;2023-02-05T00:01:32;2.28;;;0.88;;
38427;SDS011;24211;49.980;19.776;2023-02-05T00:03:59;2.47;;;0.90;;
38427;SDS011;24211;49.980;19.776;2023-02-05T00:06:27;2.53;;;1.10;;
38427;SDS011;24211;49.980;19.776;2023-02-05T00:08:54;3.15;;;0.90;;
38427;SDS011;24211;49.980;19.776;2023-02-05T00:11:23;2.40;;;1.00;;
38427;SDS011;24211;49.980;19.776;2023-02-05T00:13:51;2.28;;;0.80;;
38427;SDS011;24211;49.980;19.776;2023-02-05T00:16:20;2.78;;;0.82;;
38427;SDS011;24211;49.980;19.776;2023-02-05T00:18:50;2.38;;;0.90;;
38427;SDS011;24211;49.980;19.776;2023-02-05T00:21:19;2.17;;;0.75;;
38427;SDS011;24211;49.980;19.776;2023-02-05T00:23:48;1.17;;;0.40;;
38427;SDS011;24211;49.980;19.776;2023-02-05T00:26:16;3.17;;;0.82;;
38427;SDS011;24211;49.980;19.776;2023-02-05T00:28:44;2.75;;;0.90;;
38427;SDS011;24211;49.980;19.776;2023-02-05T00:31:18;2.53;;;0.90;;
38427;SDS011;24211;49.980;19.776;2023-02-05T00:33:48;1.90;;;0.60;;
38427;SDS011;24211;49.980;19.776;2023-02-05T00:36:18;2.38;;;0.85;;
38427;SDS011;24211;49.980;19.776;2023-02-05T00:38:47;2.20;;;0.73;;
38427;SDS011;24211;49.980;19.776;2023-02-05T00:41:15;1.45;;;0.60;;
38427;SDS011;24211;49.980;19.776;2023-02-05T00:43:43;2.50;;;0.80;;
38427;SDS011;24211;49.980;19.776;2023-02-05T00:46:11;2.20;;;0.70;;
38427;SDS011;24211;49.980;19.776;2023-02-05T00:48:40;2.35;;;0.70;;
38427;SDS011;24211;49.980;19.776;2023-02-05T00:51:09;1.27;;;0.52;;
38427;SDS011;24211;49.980;19.776;2023-02-05T00:53:38;1.88;;;0.60;;
38427;SDS011;24211;49.980;19.776;2023-02-05T00:56:06;2.33;;;0.60;;
38427;SDS011;24211;49.980;19.776;2023-02-05T00:58:33;1.42;;;0.60;;
38427;SDS011;24211;49.980;19.776;2023-02-05T01:01:01;1.38;;;0.57;;
38427;SDS011;24211;49.980;19.776;2023-02-05T01:03:31;2.17;;;0.60;;
38427;SDS011;24211;49.980;19.776;2023-02-05T01:05:58;1.75;;;0.60;;
38427;SDS011;24211;49.980;19.776;2023-02-05T01:08:28;1.20;;;0.60;;
38427;SDS011;24211;49.980;19.776;2023-02-05T01:10:56;1.85;;;0.47;;
38427;SDS011;24211;49.980;19.776;2023-02-05T01:13:23;1.67;;;0.60;;
38427;SDS011;24211;49.980;19.776;2023-02-05T01:15:51;1.63;;;0.70;;
38427;SDS011;24211;49.980;19.776;2023-02-05T01:18:18;1.63;;;0.55;;
38427;SDS011;24211;49.980;19.776;2023-02-05T01:20:46;1.63;;;0.70;;
38427;SDS011;24211;49.980;19.776;2023-02-05T01:23:14;1.00;;;0.52;;
38427;SDS011;24211;49.980;19.776;2023-02-05T01:25:41;1.85;;;0.65;;
38427;SDS011;24211;49.980;19.776;2023-02-05T01:28:09;2.45;;;0.70;;
38427;SDS011;24211;49.980;19.776;2023-02-05T01:30:36;2.15;;;0.70;;
38427;SDS011;24211;49.980;19.776;2023-02-05T01:33:03;1.75;;;0.55;;
38427;SDS011;24211;49.980;19.776;2023-02-05T01:35:31;2.25;;;0.90;;
38427;SDS011;24211;49.980;19.776;2023-02-05T01:37:59;2.15;;;0.70;;
38427;SDS011;24211;49.980;19.776;2023-02-05T01:40:27;2.80;;;0.80;;
38427;SDS011;24211;49.980;19.776;2023-02-05T01:42:54;1.90;;;0.68;;
38427;SDS011;24211;49.980;19.776;2023-02-05T01:47:50;3.60;;;0.60;;
38427;SDS011;24211;49.980;19.776;2023-02-05T01:50:23;2.50;;;0.80;;
38427;SDS011;24211;49.980;19.776;2023-02-05T01:53:04;2.47;;;0.88;;
38427;SDS011;24211;49.980;19.776;2023-02-05T01:55:44;3.13;;;1.00;;
38427;SDS011;24211;49.980;19.776;2023-02-05T01:58:20;2.90;;;0.90;;
38427;SDS011;24211;49.980;19.776;2023-02-05T02:00:53;2.70;;;0.82;;
38427;SDS011;24211;49.980;19.776;2023-02-05T02:03:20;4.90;;;1.10;;
38427;SDS011;24211;49.980;19.776;2023-02-05T02:05:54;3.13;;;1.00;;
38427;SDS011;24211;49.980;19.776;2023-02-05T02:08:23;3.47;;;1.02;;
38427;SDS011;24211;49.980;19.776;2023-02-05T02:10:51;2.97;;;0.93;;
38427;SDS011;24211;49.980;19.776;2023-02-05T02:13:22;2.75;;;1.23;;
38427;SDS011;24211;49.980;19.776;2023-02-05T02:15:54;2.58;;;0.93;;
38427;SDS011;24211;49.980;19.776;2023-02-05T02:18:23;3.53;;;1.15;;
38427;SDS011;24211;49.980;19.776;2023-02-05T02:20:59;3.75;;;1.23;;
38427;SDS011;24211;49.980;19.776;2023-02-05T02:38:15;5.25;;;1.20;;
38427;SDS011;24211;49.980;19.776;2023-02-05T02:47:18;3.42;;;1.20;;
38427;SDS011;24211;49.980;19.776;2023-02-05T02:49:57;3.53;;;1.30;;
38427;SDS011;24211;49.980;19.776;2023-02-05T02:52:32;4.50;;;1.40;;
38427;SDS011;24211;49.980;19.776;2023-02-05T02:55:06;3.28;;;1.30;;
38427;SDS011;24211;49.980;19.776;2023-02-05T02:57:43;4.30;;;1.20;;
38427;SDS011;24211;49.980;19.776;2023-02-05T03:00:19;3.92;;;1.52;;
38427;SDS011;24211;49.980;19.776;2023-02-05T03:02:53;3.90;;;1.30;;
38427;SDS011;24211;49.980;19.776;2023-02-05T03:05:29;5.30;;;1.52;;
38427;SDS011;24211;49.980;19.776;2023-02-05T03:08:00;3.72;;;1.60;;
38427;SDS011;24211;49.980;19.776;2023-02-05T03:10:37;5.35;;;1.85;;
38427;SDS011;24211;49.980;19.776;2023-02-05T03:13:16;3.35;;;1.60;;
38427;SDS011;24211;49.980;19.776;2023-02-05T03:15:51;4.47;;;1.85;;
38427;SDS011;24211;49.980;19.776;2023-02-05T03:18:21;5.97;;;1.50;;
38427;SDS011;24211;49.980;19.776;2023-02-05T03:20:51;5.25;;;1.80;;
38427;SDS011;24211;49.980;19.776;2023-02-05T03:23:25;3.85;;;1.60;;
38427;SDS011;24211;49.980;19.776;2023-02-05T03:25:54;3.53;;;1.42;;
38427;SDS011;24211;49.980;19.776;2023-02-05T03:28:31;4.00;;;1.50;;
38427;SDS011;24211;49.980;19.776;2023-02-05T03:31:05;4.03;;;1.55;;
38427;SDS011;24211;49.980;19.776;2023-02-05T03:50:56;4.20;;;1.60;;
38427;SDS011;24211;49.980;19.776;2023-02-05T03:59:40;4.15;;;1.45;;
38427;SDS011;24211;49.980;19.776;2023-02-05T04:02:10;4.18;;;1.50;;
38427;SDS011;24211;49.980;19.776;2023-02-05T04:04:41;5.43;;;1.70;;
38427;SDS011;24211;49.980;19.776;2023-02-05T04:07:08;6.25;;;1.77;;
38427;SDS011;24211;49.980;19.776;2023-02-05T04:09:37;4.57;;;1.73;;
38427;SDS011;24211;49.980;19.776;2023-02-05T04:12:05;5.30;;;1.70;;
38427;SDS011;24211;49.980;19.776;2023-02-05T04:14:35;3.88;;;1.70;;
38427;SDS011;24211;49.980;19.776;2023-02-05T04:17:03;5.70;;;1.58;;
38427;SDS011;24211;49.980;19.776;2023-02-05T04:19:31;4.60;;;1.75;;
38427;SDS011;24211;49.980;19.776;2023-02-05T04:21:59;4.47;;;1.80;;
38427;SDS011;24211;49.980;19.776;2023-02-05T04:24:31;6.72;;;1.92;;
38427;SDS011;24211;49.980;19.776;2023-02-05T04:26:59;5.20;;;1.70;;
38427;SDS011;24211;49.980;19.776;2023-02-05T04:29:27;4.28;;;1.80;;
38427;SDS011;24211;49.980;19.776;2023-02-05T04:31:56;4.82;;;1.90;;
38427;SDS011;24211;49.980;19.776;2023-02-05T04:34:24;6.00;;;2.00;;
38427;SDS011;24211;49.980;19.776;2023-02-05T04:36:52;5.20;;;1.85;;
38427;SDS011;24211;49.980;19.776;2023-02-05T04:39:21;4.07;;;1.73;;
38427;SDS011;24211;49.980;19.776;2023-02-05T04:41:49;5.50;;;1.83;;
38427;SDS011;24211;49.980;19.776;2023-02-05T04:44:16;6.80;;;1.83;;
38427;SDS011;24211;49.980;19.776;2023-02-05T04:46:43;4.32;;;1.85;;
38427;SDS011;24211;49.980;19.776;2023-02-05T04:49:11;4.63;;;1.90;;
38427;SDS011;24211;49.980;19.776;2023-02-05T04:51:38;5.15;;;1.88;;
38427;SDS011;24211;49.980;19.776;2023-02-05T04:54:05;4.78;;;1.67;;
38427;SDS011;24211;49.980;19.776;2023-02-05T04:56:33;5.03;;;1.70;;
38427;SDS011;24211;49.980;19.776;2023-02-05T04:59:01;6.45;;;2.08;;
38427;SDS011;24211;49.980;19.776;2023-02-05T05:01:28;4.57;;;1.67;;
38427;SDS011;24211;49.980;19.776;2023-02-05T05:03:56;6.15;;;2.17;;
38427;SDS011;24211;49.980;19.776;2023-02-05T05:06:23;5.75;;;2.30;;
38427;SDS011;24211;49.980;19.776;2023-02-05T05:08:50;5.97;;;2.60;;
38427;SDS011;24211;49.980;19.776;2023-02-05T05:11:19;6.13;;;2.15;;
38427;SDS011;24211;49.980;19.776;2023-02-05T05:13:46;7.32;;;2.50;;
38427;SDS011;24211;49.980;19.776;2023-02-05T05:16:15;5.70;;;2.40;;
38427;SDS011;24211;49.980;19.776;2023-02-05T05:18:42;6.22;;;2.33;;
38427;SDS011;24211;49.980;19.776;2023-02-05T05:21:09;6.72;;;2.67;;
38427;SDS011;24211;49.980;19.776;2023-02-05T05:23:37;4.95;;;2.30;;
38427;SDS011;24211;49.980;19.776;2023-02-05T05:26:05;6.40;;;2.72;;
38427;SDS011;24211;49.980;19.776;2023-02-05T05:28:36;5.05;;;2.38;;
38427;SDS011;24211;49.980;19.776;2023-02-05T05:31:07;5.15;;;2.30;;
38427;SDS011;24211;49.980;19.776;2023-02-05T05:33:39;8.98;;;2.80;;
38427;SDS011;24211;49.980;19.776;2023-02-05T05:36:07;5.03;;;2.45;;
38427;SDS011;24211;49.980;19.776;2023-02-05T05:38:34;5.32;;;2.47;;
38427;SDS011;24211;49.980;19.776;2023-02-05T05:41:02;6.88;;;2.65;;
38427;SDS011;24211;49.980;19.776;2023-02-05T05:43:50;5.95;;;2.65;;
38427;SDS011;24211;49.980;19.776;2023-02-05T05:46:22;6.35;;;2.47;;
38427;SDS011;24211;49.980;19.776;2023-02-05T05:48:52;5.60;;;2.40;;
38427;SDS011;24211;49.980;19.776;2023-02-05T05:51:23;5.63;;;2.17;;
38427;SDS011;24211;49.980;19.776;2023-02-05T05:53:53;6.70;;;2.60;;
38427;SDS011;24211;49.980;19.776;2023-02-05T05:56:21;7.93;;;2.95;;
38427;SDS011;24211;49.980;19.776;2023-02-05T05:58:49;7.20;;;2.80;;
38427;SDS011;24211;49.980;19.776;2023-02-05T06:01:17;7.93;;;3.03;;
38427;SDS011;24211;49.980;19.776;2023-02-05T06:03:48;7.45;;;2.70;;
38427;SDS011;24211;49.980;19.776;2023-02-05T06:06:16;6.53;;;3.08;;
38427;SDS011;24211;49.980;19.776;2023-02-05T06:08:44;8.38;;;3.40;;
38427;SDS011;24211;49.980;19.776;2023-02-05T06:11:11;9.80;;;3.50;;
38427;SDS011;24211;49.980;19.776;2023-02-05T06:13:39;10.20;;;3.72;;
38427;SDS011;24211;49.980;19.776;2023-02-05T06:16:07;10.00;;;3.70;;
38427;SDS011;24211;49.980;19.776;2023-02-05T06:18:34;8.50;;;3.65;;
38427;SDS011;24211;49.980;19.776;2023-02-05T06:21:03;10.10;;;3.90;;
38427;SDS011;24211;49.980;19.776;2023-02-05T06:23:32;9.95;;;3.92;;
38427;SDS011;24211;49.980;19.776;2023-02-05T06:25:59;11.88;;;4.32;;
38427;SDS011;24211;49.980;19.776;2023-02-05T06:28:30;13.45;;;4.50;;
38427;SDS011;24211;49.980;19.776;2023-02-05T06:30:57;14.40;;;5.43;;
38427;SDS011;24211;49.980;19.776;2023-02-05T06:33:24;16.52;;;5.60;;
38427;SDS011;24211;49.980;19.776;2023-02-05T06:35:51;20.08;;;6.78;;
38427;SDS011;24211;49.980;19.776;2023-02-05T06:38:19;17.75;;;6.38;;
38427;SDS011;24211;49.980;19.776;2023-02-05T06:40:47;22.73;;;7.55;;
38427;SDS011;24211;49.980;19.776;2023-02-05T06:43:14;23.00;;;8.05;;
38427;SDS011;24211;49.980;19.776;2023-02-05T06:45:41;26.38;;;8.48;;
38427;SDS011;24211;49.980;19.776;2023-02-05T06:48:09;26.15;;;8.75;;
38427;SDS011;24211;49.980;19.776;2023-02-05T06:50:36;29.33;;;9.63;;
38427;SDS011;24211;49.980;19.776;2023-02-05T06:53:04;28.23;;;9.18;;
38427;SDS011;24211;49.980;19.776;2023-02-05T06:55:31;29.17;;;8.80;;
38427;SDS011;24211;49.980;19.776;2023-02-05T06:58:02;23.10;;;8.30;;
38427;SDS011;24211;49.980;19.776;2023-02-05T07:00:30;23.27;;;8.10;;
38427;SDS011;24211;49.980;19.776;2023-02-05T07:02:58;29.40;;;8.02;;
38427;SDS011;24211;49.980;19.776;2023-02-05T07:05:26;22.30;;;7.63;;
38427;SDS011;24211;49.980;19.776;2023-02-05T07:07:53;19.52;;;7.13;;
38427;SDS011;24211;49.980;19.776;2023-02-05T07:10:21;18.00;;;6.63;;
38427;SDS011;24211;49.980;19.776;2023-02-05T07:12:48;21.27;;;7.10;;
38427;SDS011;24211;49.980;19.776;2023-02-05T07:15:15;19.42;;;6.22;;
38427;SDS011;24211;49.980;19.776;2023-02-05T07:17:42;17.73;;;6.28;;
38427;SDS011;24211;49.980;19.776;2023-02-05T07:20:10;14.18;;;5.72;;
38427;SDS011;24211;49.980;19.776;2023-02-05T07:22:37;15.52;;;5.80;;
38427;SDS011;24211;49.980;19.776;2023-02-05T07:25:04;17.02;;;5.47;;
38427;SDS011;24211;49.980;19.776;2023-02-05T07:27:32;15.90;;;5.90;;
38427;SDS011;24211;49.980;19.776;2023-02-05T07:29:59;13.77;;;5.60;;
38427;SDS011;24211;49.980;19.776;2023-02-05T07:32:29;14.20;;;5.10;;
38427;SDS011;24211;49.980;19.776;2023-02-05T07:35:05;14.10;;;5.47;;
38427;SDS011;24211;49.980;19.776;2023-02-05T07:37:32;16.52;;;5.68;;
38427;SDS011;24211;49.980;19.776;2023-02-05T07:40:02;10.65;;;4.90;;
38427;SDS011;24211;49.980;19.776;2023-02-05T07:42:30;13.20;;;5.15;;
38427;SDS011;24211;49.980;19.776;2023-02-05T07:45:00;12.80;;;5.15;;
38427;SDS011;24211;49.980;19.776;2023-02-05T07:47:27;10.70;;;4.72;;
38427;SDS011;24211;49.980;19.776;2023-02-05T07:49:55;13.85;;;5.20;;
38427;SDS011;24211;49.980;19.776;2023-02-05T07:52:22;12.10;;;4.95;;
38427;SDS011;24211;49.980;19.776;2023-02-05T07:54:50;12.43;;;5.10;;
38427;SDS011;24211;49.980;19.776;2023-02-05T07:57:17;12.90;;;5.38;;
38427;SDS011;24211;49.980;19.776;2023-02-05T07:59:45;10.23;;;4.55;;
38427;SDS011;24211;49.980;19.776;2023-02-05T08:02:12;12.43;;;4.85;;
38427;SDS011;24211;49.980;19.776;2023-02-05T08:04:39;10.48;;;4.75;;
38427;SDS011;24211;49.980;19.776;2023-02-05T08:07:06;12.13;;;4.70;;
38427;SDS011;24211;49.980;19.776;2023-02-05T08:09:37;13.13;;;4.93;;
38427;SDS011;24211;49.980;19.776;2023-02-05T08:12:05;13.00;;;4.72;;
38427;SDS011;24211;49.980;19.776;2023-02-05T08:14:32;12.63;;;4.88;;
38427;SDS011;24211;49.980;19.776;2023-02-05T08:17:01;12.68;;;4.65;;
38427;SDS011;24211;49.980;19.776;2023-02-05T08:19:31;12.05;;;4.70;;
38427;SDS011;24211;49.980;19.776;2023-02-05T08:21:59;13.50;;;5.38;;
38427;SDS011;24211;49.980;19.776;2023-02-05T08:24:26;14.93;;;5.72;;
38427;SDS011;24211;49.980;19.776;2023-02-05T08:26:54;13.38;;;5.28;;
38427;SDS011;24211;49.980;19.776;2023-02-05T08:29:21;13.40;;;5.72;;
38427;SDS011;24211;49.980;19.776;2023-02-05T08:31:48;15.52;;;6.20;;
38427;SDS011;24211;49.980;19.776;2023-02-05T08:34:16;15.43;;;5.75;;
38427;SDS011;24211;49.980;19.776;2023-02-05T08:36:46;17.13;;;5.95;;
38427;SDS011;24211;49.980;19.776;2023-02-05T08:39:13;13.93;;;5.72;;
38427;SDS011;24211;49.980;19.776;2023-02-05T08:41:41;15.02;;;5.57;;
38427;SDS011;24211;49.980;19.776;2023-02-05T08:44:08;13.65;;;5.72;;
38427;SDS011;24211;49.980;19.776;2023-02-05T08:46:37;15.32;;;5.88;;
38427;SDS011;24211;49.980;19.776;2023-02-05T08:49:16;16.88;;;6.65;;
38427;SDS011;24211;49.980;19.776;2023-02-05T08:51:44;19.35;;;6.40;;
38427;SDS011;24211;49.980;19.776;2023-02-05T08:54:12;19.05;;;6.65;;
38427;SDS011;24211;49.980;19.776;2023-02-05T08:56:41;18.15;;;6.90;;
38427;SDS011;24211;49.980;19.776;2023-02-05T08:59:10;16.02;;;6.55;;
38427;SDS011;24211;49.980;19.776;2023-02-05T09:01:38;17.10;;;6.43;;
38427;SDS011;24211;49.980;19.776;2023-02-05T09:04:12;17.42;;;6.40;;
38427;SDS011;24211;49.980;19.776;2023-02-05T09:06:46;18.40;;;6.40;;
38427;SDS011;24211;49.980;19.776;2023-02-05T09:09:14;17.60;;;6.78;;
38427;SDS011;24211;49.980;19.776;2023-02-05T09:11:41;18.05;;;6.55;;
38427;SDS011;24211;49.980;19.776;2023-02-05T09:14:14;18.30;;;7.07;;
38427;SDS011;24211;49.980;19.776;2023-02-05T09:16:42;20.83;;;8.15;;
38427;SDS011;24211;49.980;19.776;2023-02-05T09:19:09;25.83;;;8.65;;
38427;SDS011;24211;49.980;19.776;2023-02-05T09:21:36;21.80;;;9.07;;
38427;SDS011;24211;49.980;19.776;2023-02-05T09:24:03;25.70;;;9.50;;
38427;SDS011;24211;49.980;19.776;2023-02-05T09:26:31;25.45;;;9.07;;
38427;SDS011;24211;49.980;19.776;2023-02-05T09:28:58;26.70;;;8.98;;
38427;SDS011;24211;49.980;19.776;2023-02-05T09:31:27;21.88;;;8.48;;
38427;SDS011;24211;49.980;19.776;2023-02-05T09:33:55;17.42;;;6.63;;
38427;SDS011;24211;49.980;19.776;2023-02-05T09:36:31;17.88;;;7.20;;
38427;SDS011;24211;49.980;19.776;2023-02-05T09:38:59;17.02;;;6.82;;
38427;SDS011;24211;49.980;19.776;2023-02-05T09:44:47;18.52;;;6.72;;
38427;SDS011;24211;49.980;19.776;2023-02-05T09:47:43;15.80;;;6.43;;
38427;SDS011;24211;49.980;19.776;2023-02-05T09:50:49;16.23;;;6.07;;
38427;SDS011;24211;49.980;19.776;2023-02-05T09:53:18;12.63;;;5.05;;
38427;SDS011;24211;49.980;19.776;2023-02-05T09:55:47;13.27;;;5.22;;
38427;SDS011;24211;49.980;19.776;2023-02-05T09:58:16;12.02;;;4.30;;
38427;SDS011;24211;49.980;19.776;2023-02-05T10:01:01;9.10;;;3.45;;
38427;SDS011;24211;49.980;19.776;2023-02-05T10:27:47;5.45;;;1.88;;
38427;SDS011;24211;49.980;19.776;2023-02-05T10:30:53;6.30;;;1.80;;
38427;SDS011;24211;49.980;19.776;2023-02-05T10:36:22;6.30;;;1.85;;
38427;SDS011;24211;49.980;19.776;2023-02-05T10:38:55;8.23;;;2.63;;
38427;SDS011;24211;49.980;19.776;2023-02-05T10:41:25;5.07;;;2.00;;
38427;SDS011;24211;49.980;19.776;2023-02-05T10:44:09;5.90;;;2.08;;
38427;SDS011;24211;49.980;19.776;2023-02-05T10:46:56;5.03;;;1.80;;
38427;SDS011;24211;49.980;19.776;2023-02-05T10:52:26;5.60;;;1.90;;
38427;SDS011;24211;49.980;19.776;2023-02-05T10:54:53;5.22;;;2.00;;
38427;SDS011;24211;49.980;19.776;2023-02-05T10:57:21;6.97;;;2.10;;
38427;SDS011;24211;49.980;19.776;2023-02-05T11:00:02;5.40;;;1.92;;
38427;SDS011;24211;49.980;19.776;2023-02-05T11:02:58;4.57;;;1.77;;
38427;SDS011;24211;49.980;19.776;2023-02-05T11:05:30;6.60;;;1.77;;
38427;SDS011;24211;49.980;19.776;2023-02-05T11:08:04;6.03;;;1.77;;
38427;SDS011;24211;49.980;19.776;2023-02-05T11:10:58;4.95;;;1.67;;
38427;SDS011;24211;49.980;19.776;2023-02-05T11:13:28;4.40;;;1.55;;
38427;SDS011;24211;49.980;19.776;2023-02-05T11:16:04;5.43;;;1.95;;
38427;SDS011;24211;49.980;19.776;2023-02-05T11:18:35;4.47;;;1.80;;
38427;SDS011;24211;49.980;19.776;2023-02-05T11:21:08;5.63;;;1.92;;
38427;SDS011;24211;49.980;19.776;2023-02-05T11:23:37;6.43;;;1.60;;
38427;SDS011;24211;49.980;19.776;2023-02-05T11:26:21;4.93;;;1.52;;
38427;SDS011;24211;49.980;19.776;2023-02-05T11:28:54;4.93;;;1.92;;
38427;SDS011;24211;49.980;19.776;2023-02-05T11:36:35;6.80;;;2.20;;
38427;SDS011;24211;49.980;19.776;2023-02-05T11:39:23;6.82;;;2.08;;
38427;SDS011;24211;49.980;19.776;2023-02-05T11:42:06;6.78;;;2.00;;
38427;SDS011;24211;49.980;19.776;2023-02-05T11:44:49;6.50;;;2.28;;
38427;SDS011;24211;49.980;19.776;2023-02-05T11:47:30;5.38;;;2.20;;
38427;SDS011;24211;49.980;19.776;2023-02-05T11:50:05;4.55;;;1.70;;
38427;SDS011;24211;49.980;19.776;2023-02-05T11:52:50;6.32;;;2.67;;
38427;SDS011;24211;49.980;19.776;2023-02-05T11:55:28;6.65;;;2.20;;
38427;SDS011;24211;49.980;19.776;2023-02-05T11:58:00;6.55;;;2.38;;
38427;SDS011;24211;49.980;19.776;2023-02-05T12:00:32;6.38;;;2.30;;
38427;SDS011;24211;49.980;19.776;2023-02-05T12:03:15;6.15;;;2.30;;
38427;SDS011;24211;49.980;19.776;2023-02-05T12:05:53;5.85;;;2.15;;
38427;SDS011;24211;49.980;19.776;2023-02-05T12:08:36;6.63;;;1.85;;
38427;SDS011;24211;49.980;19.776;2023-02-05T12:14:41;6.55;;;2.47;;
38427;SDS011;24211;49.980;19.776;2023-02-05T12:26:34;9.52;;;3.20;;
38427;SDS011;24211;49.980;19.776;2023-02-05T12:37:57;9.82;;;3.42;;
38427;SDS011;24211;49.980;19.776;2023-02-05T12:41:02;12.85;;;2.97;;
38427;SDS011;24211;49.980;19.776;2023-02-05T12:43:46;9.02;;;2.75;;
38427;SDS011;24211;49.980;19.776;2023-02-05T12:52:31;8.55;;;2.80;;
38427;SDS011;24211;49.980;19.776;2023-02-05T12:55:39;7.78;;;2.58;;
38427;SDS011;24211;49.980;19.776;2023-02-05T12:58:14;6.00;;;1.95;;
38427;SDS011;24211;49.980;19.776;2023-02-05T13:06:51;5.68;;;2.28;;
38427;SDS011;24211;49.980;19.776;2023-02-05T13:11:43;7.43;;;2.10;;
38427;SDS011;24211;49.980;19.776;2023-02-05T13:14:23;5.60;;;2.10;;
38427;SDS011;24211;49.980;19.776;2023-02-05T13:17:14;6.30;;;2.28;;
38427;SDS011;24211;49.980;19.776;2023-02-05T13:19:53;6.13;;;2.13;;
38427;SDS011;24211;49.980;19.776;2023-02-05T13:22:29;5.53;;;1.70;;
38427;SDS011;24211;49.980;19.776;2023-02-05T13:25:32;6.30;;;2.30;;
38427;SDS011;24211;49.980;19.776;2023-02-05T13:28:44;6.00;;;2.10;;
38427;SDS011;24211;49.980;19.776;2023-02-05T13:34:42;5.65;;;2.00;;
38427;SDS011;24211;49.980;19.776;2023-02-05T13:59:37;6.78;;;2.13;;
38427;SDS011;24211;49.980;19.776;2023-02-05T14:05:00;5.53;;;2.10;;
38427;SDS011;24211;49.980;19.776;2023-02-05T14:07:30;5.25;;;2.17;;
38427;SDS011;24211;49.980;19.776;2023-02-05T14:10:27;5.45;;;2.03;;
38427;SDS011;24211;49.980;19.776;2023-02-05T14:13:07;5.97;;;2.15;;
38427;SDS011;24211;49.980;19.776;2023-02-05T14:15:50;5.30;;;2.03;;
38427;SDS011;24211;49.980;19.776;2023-02-05T14:23:55;6.13;;;2.15;;
38427;SDS011;24211;49.980;19.776;2023-02-05T14:26:47;7.15;;;2.17;;
38427;SDS011;24211;49.980;19.776;2023-02-05T14:35:26;9.43;;;3.47;;
38427;SDS011;24211;49.980;19.776;2023-02-05T14:38:15;10.50;;;4.00;;
38427;SDS011;24211;49.980;19.776;2023-02-05T14:41:06;12.05;;;4.38;;
38427;SDS011;24211;49.980;19.776;2023-02-05T14:43:53;13.60;;;4.35;;
38427;SDS011;24211;49.980;19.776;2023-02-05T14:46:37;11.50;;;4.50;;
38427;SDS011;24211;49.980;19.776;2023-02-05T14:49:34;13.82;;;5.50;;
38427;SDS011;24211;49.980;19.776;2023-02-05T14:52:17;14.70;;;5.53;;
38427;SDS011;24211;49.980;19.776;2023-02-05T14:55:00;12.23;;;4.97;;
38427;SDS011;24211;49.980;19.776;2023-02-05T14:57:58;12.90;;;4.60;;
38427;SDS011;24211;49.980;19.776;2023-02-05T15:03:00;11.43;;;4.20;;
38427;SDS011;24211;49.980;19.776;2023-02-05T15:16:47;8.57;;;3.38;;
38427;SDS011;24211;49.980;19.776;2023-02-05T15:19:36;10.07;;;3.17;;
38427;SDS011;24211;49.980;19.776;2023-02-05T15:22:32;8.25;;;3.00;;
38427;SDS011;24211;49.980;19.776;2023-02-05T15:25:13;9.85;;;3.42;;
38427;SDS011;24211;49.980;19.776;2023-02-05T15:27:53;7.50;;;2.97;;
38427;SDS011;24211;49.980;19.776;2023-02-05T15:30:35;6.90;;;2.60;;
38427;SDS011;24211;49.980;19.776;2023-02-05T15:33:19;7.43;;;2.90;;
38427;SDS011;24211;49.980;19.776;2023-02-05T15:35:58;7.30;;;2.78;;
38427;SDS011;24211;49.980;19.776;2023-02-05T15:38:42;7.30;;;3.00;;
38427;SDS011;24211;49.980;19.776;2023-02-05T15:41:28;8.40;;;3.40;;
38427;SDS011;24211;49.980;19.776;2023-02-05T15:44:00;8.07;;;3.22;;
38427;SDS011;24211;49.980;19.776;2023-02-05T15:46:29;8.52;;;3.42;;
38427;SDS011;24211;49.980;19.776;2023-02-05T15:48:58;10.32;;;3.97;;
38427;SDS011;24211;49.980;19.776;2023-02-05T15:51:31;10.38;;;4.18;;
38427;SDS011;24211;49.980;19.776;2023-02-05T15:54:02;8.98;;;3.70;;
38427;SDS011;24211;49.980;19.776;2023-02-05T15:56:36;9.60;;;3.60;;
38427;SDS011;24211;49.980;19.776;2023-02-05T15:59:11;10.80;;;3.92;;
38427;SDS011;24211;49.980;19.776;2023-02-05T16:01:58;9.07;;;3.85;;
38427;SDS011;24211;49.980;19.776;2023-02-05T16:04:35;11.75;;;4.75;;
38427;SDS011;24211;49.980;19.776;2023-02-05T16:07:18;10.80;;;4.50;;
38427;SDS011;24211;49.980;19.776;2023-02-05T16:09:54;14.55;;;5.65;;
38427;SDS011;24211;49.980;19.776;2023-02-05T16:12:27;14.88;;;5.22;;
38427;SDS011;24211;49.980;19.776;2023-02-05T16:15:04;19.20;;;6.22;;
38427;SDS011;24211;49.980;19.776;2023-02-05T16:17:41;19.25;;;6.47;;
38427;SDS011;24211;49.980;19.776;2023-02-05T16:25:41;21.23;;;7.50;;
38427;SDS011;24211;49.980;19.776;2023-02-05T16:29:02;20.38;;;6.78;;
38427;SDS011;24211;49.980;19.776;2023-02-05T16:31:15;20.58;;;6.70;;
38427;SDS011;24211;49.980;19.776;2023-02-05T16:36:24;23.10;;;7.45;;
38427;SDS011;24211;49.980;19.776;2023-02-05T16:38:59;18.38;;;6.82;;
38427;SDS011;24211;49.980;19.776;2023-02-05T16:41:34;19.10;;;6.97;;
38427;SDS011;24211;49.980;19.776;2023-02-05T16:44:08;19.58;;;6.75;;
38427;SDS011;24211;49.980;19.776;2023-02-05T16:49:47;18.80;;;6.60;;
38427;SDS011;24211;49.980;19.776;2023-02-05T16:55:05;18.15;;;6.35;;
38427;SDS011;24211;49.980;19.776;2023-02-05T16:57:53;19.38;;;6.40;;
38427;SDS011;24211;49.980;19.776;2023-02-05T17:00:30;15.43;;;6.25;;
38427;SDS011;24211;49.980;19.776;2023-02-05T17:03:03;17.05;;;6.10;;
38427;SDS011;24211;49.980;19.776;2023-02-05T17:05:43;18.48;;;6.13;;
38427;SDS011;24211;49.980;19.776;2023-02-05T17:08:31;14.98;;;5.50;;
38427;SDS011;24211;49.980;19.776;2023-02-05T17:11:06;15.98;;;5.63;;
38427;SDS011;24211;49.980;19.776;2023-02-05T17:16:58;17.60;;;5.30;;
38427;SDS011;24211;49.980;19.776;2023-02-05T17:19:42;13.55;;;5.32;;
38427;SDS011;24211;49.980;19.776;2023-02-05T17:22:34;15.98;;;5.82;;
38427;SDS011;24211;49.980;19.776;2023-02-05T17:25:01;17.63;;;5.80;;
38427;SDS011;24211;49.980;19.776;2023-02-05T17:27:35;24.40;;;7.32;;
38427;SDS011;24211;49.980;19.776;2023-02-05T17:30:04;29.77;;;8.40;;
38427;SDS011;24211;49.980;19.776;2023-02-05T17:32:39;35.92;;;10.55;;
38427;SDS011;24211;49.980;19.776;2023-02-05T17:35:13;39.30;;;11.63;;
38427;SDS011;24211;49.980;19.776;2023-02-05T17:37:48;44.35;;;12.27;;
38427;SDS011;24211;49.980;19.776;2023-02-05T17:40:16;42.45;;;12.30;;
38427;SDS011;24211;49.980;19.776;2023-02-05T17:42:47;41.55;;;11.70;;
38427;SDS011;24211;49.980;19.776;2023-02-05T17:45:16;45.33;;;12.23;;
38427;SDS011;24211;49.980;19.776;2023-02-05T17:47:53;41.88;;;12.50;;
38427;SDS011;24211;49.980;19.776;2023-02-05T17:50:20;44.10;;;12.48;;
38427;SDS011;24211;49.980;19.776;2023-02-05T17:52:48;43.97;;;13.10;;
38427;SDS011;24211;49.980;19.776;2023-02-05T17:55:16;38.80;;;12.73;;
38427;SDS011;24211;49.980;19.776;2023-02-05T17:57:46;44.30;;;12.00;;
38427;SDS011;24211;49.980;19.776;2023-02-05T18:00:19;38.25;;;11.38;;
38427;SDS011;24211;49.980;19.776;2023-02-05T18:02:50;38.58;;;10.63;;
38427;SDS011;24211;49.980;19.776;2023-02-05T18:05:18;33.13;;;10.52;;
38427;SDS011;24211;49.980;19.776;2023-02-05T18:07:49;31.85;;;10.38;;
38427;SDS011;24211;49.980;19.776;2023-02-05T18:10:26;31.85;;;9.98;;
38427;SDS011;24211;49.980;19.776;2023-02-05T18:12:59;28.00;;;10.20;;
38427;SDS011;24211;49.980;19.776;2023-02-05T18:15:27;28.17;;;9.93;;